Time;durP1;ratioP1;P1;durP2;ratioP2;P2;SDS_P1;SDS_P2;PMS_P1;PMS_P2;Temp;Humidity;BMP_temperature;BMP_pressure;BME280_temperature;BME280_humidity;BME280_pressure;Samples;Min_cycle;Max_cycle;Signal;HPM_P1;HPM_P2
2023/02/03 00:00:07;;;;;;;11.90;5.60;;;;;;;0.46;100.00;100322.56;109307;1251;60518;-95
2023/02/03 00:03:03;;;;;;;11.50;5.30;;;;;;;0.39;100.00;100325.27;109365;1251;73979;-94
2023/02/03 00:05:53;;;;;;;9.50;5.70;;;;;;;0.45;100.00;100328.73;109188;1250;68324;-93
2023/02/03 00:08:43;;;;;;;11.50;6.00;;;;;;;0.47;100.00;100329.45;109239;1251;72178;-93
2023/02/03 00:11:34;;;;;;;11.30;5.30;;;;;;;0.48;100.00;100335.08;109362;1252;60815;-93
2023/02/03 00:14:24;;;;;;;11.30;5.10;;;;;;;0.45;100.00;100327.06;109199;1252;60048;-93
2023/02/03 00:17:14;;;;;;;11.40;6.10;;;;;;;0.46;100.00;100328.77;109187;1253;73105;-93
2023/02/03 00:20:03;;;;;;;9.10;5.20;;;;;;;0.48;100.00;100333.51;109231;1254;70006;-93
2023/02/03 00:22:53;;;;;;;9.40;5.40;;;;;;;0.50;100.00;100330.15;109185;1251;72578;-94
2023/02/03 00:25:42;;;;;;;12.50;5.70;;;;;;;0.51;100.00;100330.46;109109;1253;59571;-94
2023/02/03 00:28:32;;;;;;;11.90;5.40;;;;;;;0.50;100.00;100325.52;109314;1253;60330;-94
2023/02/03 00:31:22;;;;;;;13.10;5.70;;;;;;;0.46;100.00;100325.85;109048;1254;75080;-93
2023/02/03 00:34:11;;;;;;;9.90;5.90;;;;;;;0.42;100.00;100331.92;108966;1257;69668;-93
2023/02/03 00:37:02;;;;;;;10.20;5.30;;;;;;;0.39;100.00;100329.41;108997;1254;73465;-93
2023/02/03 00:39:53;;;;;;;12.40;5.90;;;;;;;0.37;100.00;100332.12;109026;1254;60976;-93
2023/02/03 00:42:42;;;;;;;12.50;5.90;;;;;;;0.38;100.00;100334.27;109096;1255;61151;-93
2023/02/03 00:45:32;;;;;;;12.00;6.30;;;;;;;0.36;100.00;100332.37;109032;1254;73325;-92
2023/02/03 00:48:22;;;;;;;10.70;5.50;;;;;;;0.33;100.00;100332.14;109320;1252;68937;-95
2023/02/03 00:51:12;;;;;;;10.70;6.20;;;;;;;0.32;100.00;100335.42;109190;1253;73968;-94
2023/02/03 00:54:01;;;;;;;16.20;5.80;;;;;;;0.31;100.00;100340.14;109030;1254;61280;-94
2023/02/03 00:56:51;;;;;;;14.10;6.80;;;;;;;0.28;100.00;100343.58;109064;1254;60189;-94
2023/02/03 00:59:40;;;;;;;12.50;5.80;;;;;;;0.26;100.00;100342.17;109128;1253;74988;-94
2023/02/03 01:02:30;;;;;;;13.90;5.60;;;;;;;0.30;100.00;100344.64;109258;1253;67800;-94
2023/02/03 01:05:19;;;;;;;10.30;5.90;;;;;;;0.34;100.00;100342.56;109118;1252;74449;-93
2023/02/03 01:08:09;;;;;;;15.30;5.80;;;;;;;0.38;100.00;100340.17;109100;1252;60796;-92
2023/02/03 01:11:05;;;;;;;13.50;6.00;;;;;;;0.41;100.00;100339.23;109276;1253;60565;-93
2023/02/03 01:13:55;;;;;;;10.50;5.50;;;;;;;0.41;100.00;100337.50;109198;1253;73918;-93
2023/02/03 01:16:44;;;;;;;13.00;5.90;;;;;;;0.46;100.00;100339.63;109279;1253;68821;-95
2023/02/03 01:19:33;;;;;;;8.60;5.30;;;;;;;0.49;100.00;100338.54;109101;1254;72641;-93
2023/02/03 01:22:22;;;;;;;14.70;5.90;;;;;;;0.52;100.00;100336.14;109092;1254;59905;-93
2023/02/03 01:25:12;;;;;;;13.30;5.80;;;;;;;0.52;100.00;100338.65;109179;1253;61181;-94
2023/02/03 01:28:01;;;;;;;13.20;6.10;;;;;;;0.49;100.00;100334.91;109234;1254;73881;-92
2023/02/03 01:30:51;;;;;;;9.10;4.90;;;;;;;0.52;100.00;100337.83;109314;1253;67975;-93
2023/02/03 01:33:40;;;;;;;14.90;6.10;;;;;;;0.49;100.00;100336.35;109305;1253;72789;-94
2023/02/03 01:36:30;;;;;;;10.80;5.60;;;;;;;0.54;100.00;100334.75;109219;1253;61302;-94
2023/02/03 01:39:20;;;;;;;9.60;5.20;;;;;;;0.61;100.00;100331.55;109181;1254;60849;-93
2023/02/03 01:42:13;;;;;;;10.50;5.20;;;;;;;0.64;100.00;100328.11;109185;1253;74173;-94
2023/02/03 01:45:03;;;;;;;12.00;5.40;;;;;;;0.65;100.00;100326.94;109102;1254;70594;-93
2023/02/03 01:47:54;;;;;;;11.80;6.10;;;;;;;0.65;100.00;100323.88;109229;1252;73000;-94
2023/02/03 01:50:45;;;;;;;11.60;5.70;;;;;;;0.73;100.00;100329.05;109087;1253;60976;-92
2023/02/03 01:53:36;;;;;;;9.50;5.30;;;;;;;0.76;100.00;100330.63;109205;1252;62229;-94
2023/02/03 01:56:27;;;;;;;11.20;5.50;;;;;;;0.82;100.00;100331.04;109228;1254;74534;-93
2023/02/03 01:59:17;;;;;;;10.20;4.90;;;;;;;0.89;100.00;100328.23;109098;1254;69954;-95
2023/02/03 02:02:06;;;;;;;12.70;5.50;;;;;;;0.87;100.00;100327.69;109090;1254;72770;-92
2023/02/03 02:05:31;;;;;;;9.40;5.40;;;;;;;0.87;100.00;100332.58;109228;1253;60527;-93
2023/02/03 02:08:24;;;;;;;13.10;6.00;;;;;;;0.77;100.00;100333.94;108621;1260;61523;-94
2023/02/03 02:11:14;;;;;;;13.90;6.10;;;;;;;0.81;100.00;100338.41;109076;1254;75082;-94
2023/02/03 02:14:04;;;;;;;9.60;5.90;;;;;;;0.83;100.00;100339.61;109000;1254;70064;-93
2023/02/03 02:17:18;;;;;;;10.40;5.60;;;;;;;0.90;100.00;100339.02;109146;1252;74424;-94
2023/02/03 02:20:27;;;;;;;11.50;5.50;;;;;;;0.88;100.00;100343.30;109223;1254;62431;-95
2023/02/03 02:23:24;;;;;;;13.90;6.20;;;;;;;1.01;100.00;100344.02;109152;1254;61309;-93
2023/02/03 02:26:17;;;;;;;11.30;6.00;;;;;;;1.02;100.00;100341.86;109189;1253;76788;-93
2023/02/03 02:29:12;;;;;;;13.00;6.20;;;;;;;1.05;100.00;100342.34;109266;1254;69914;-96
2023/02/03 02:32:12;;;;;;;12.60;5.70;;;;;;;1.05;100.00;100344.33;109300;1254;72700;-92
2023/02/03 02:35:35;;;;;;;11.70;5.50;;;;;;;1.02;100.00;100346.98;109304;1252;61574;-93
2023/02/03 02:38:31;;;;;;;11.00;5.30;;;;;;;1.04;100.00;100345.00;109195;1254;61243;-94
2023/02/03 02:41:40;;;;;;;10.30;5.60;;;;;;;1.07;100.00;100344.60;109136;1254;73884;-94
2023/02/03 02:44:33;;;;;;;12.90;5.50;;;;;;;1.02;100.00;100344.27;109128;1253;67677;-95
2023/02/03 02:47:22;;;;;;;10.00;5.30;;;;;;;1.01;100.00;100345.68;108993;1253;73706;-94
2023/02/03 02:50:25;;;;;;;12.70;5.70;;;;;;;0.94;100.00;100348.84;109162;1253;61747;-92
2023/02/03 02:53:14;;;;;;;11.00;5.70;;;;;;;0.92;100.00;100344.85;109137;1251;60670;-94
2023/02/03 02:56:05;;;;;;;11.10;5.20;;;;;;;0.94;100.00;100344.08;109177;1253;73180;-94
2023/02/03 02:58:55;;;;;;;12.10;5.30;;;;;;;0.97;100.00;100345.30;109106;1252;69809;-95
2023/02/03 03:01:44;;;;;;;9.30;4.90;;;;;;;0.97;100.00;100344.48;109086;1256;73628;-93
2023/02/03 03:04:33;;;;;;;9.90;5.30;;;;;;;0.94;100.00;100343.29;109050;1253;61168;-93
2023/02/03 03:07:24;;;;;;;11.00;5.70;;;;;;;0.93;100.00;100342.73;109232;1252;62029;-94
2023/02/03 03:10:14;;;;;;;13.50;6.00;;;;;;;0.91;100.00;100339.43;109049;1253;73734;-93
2023/02/03 03:13:08;;;;;;;11.30;5.50;;;;;;;0.94;100.00;100340.52;109007;1256;69022;-94
2023/02/03 03:15:58;;;;;;;10.10;5.40;;;;;;;0.94;100.00;100339.45;108932;1254;72405;-93
2023/02/03 03:18:52;;;;;;;11.50;6.30;;;;;;;0.93;100.00;100333.40;109055;1253;60622;-94
2023/02/03 03:21:56;;;;;;;14.00;6.50;;;;;;;0.88;100.00;100329.02;109066;1254;60850;-94
2023/02/03 03:24:49;;;;;;;12.70;6.10;;;;;;;0.85;100.00;100330.81;109347;1253;74599;-93
2023/02/03 03:27:42;;;;;;;14.20;6.20;;;;;;;0.81;100.00;100327.13;109242;1253;70536;-95
2023/02/03 03:30:35;;;;;;;14.70;6.50;;;;;;;0.80;100.00;100327.00;109328;1253;74075;-95
2023/02/03 03:33:30;;;;;;;11.30;5.60;;;;;;;0.84;100.00;100329.30;109120;1253;59579;-93
2023/02/03 03:36:34;;;;;;;8.30;4.80;;;;;;;0.82;100.00;100330.38;109346;1253;61994;-94
2023/02/03 03:39:28;;;;;;;13.60;6.70;;;;;;;0.79;100.00;100331.86;109212;1254;75001;-93
2023/02/03 03:42:50;;;;;;;10.50;5.00;;;;;;;0.76;100.00;100332.70;109340;1253;68857;-93
2023/02/03 03:45:39;;;;;;;15.60;5.50;;;;;;;0.73;100.00;100336.82;109101;1254;73539;-93
2023/02/03 03:48:46;;;;;;;13.50;6.00;;;;;;;0.72;100.00;100335.38;109290;1254;62923;-93
2023/02/03 03:51:55;;;;;;;12.20;6.10;;;;;;;0.71;100.00;100337.81;109244;1253;59156;-95
2023/02/03 03:54:44;;;;;;;13.80;5.70;;;;;;;0.72;100.00;100338.98;109214;1252;73733;-94
2023/02/03 03:57:44;;;;;;;10.00;5.50;;;;;;;0.71;100.00;100340.60;109167;1254;68641;-95
2023/02/03 04:00:34;;;;;;;12.30;5.50;;;;;;;0.72;100.00;100344.02;109183;1254;73255;-94
2023/02/03 04:03:30;;;;;;;16.30;6.90;;;;;;;0.72;100.00;100349.04;109134;1252;59913;-95
2023/02/03 04:06:19;;;;;;;11.90;5.50;;;;;;;0.69;100.00;100351.61;109211;1252;61397;-93
2023/02/03 04:09:08;;;;;;;14.30;6.40;;;;;;;0.70;100.00;100354.92;109140;1253;75051;-93
2023/02/03 04:12:01;;;;;;;12.00;6.60;;;;;;;0.70;100.00;100354.63;109326;1253;69921;-93
2023/02/03 04:14:50;;;;;;;12.30;6.20;;;;;;;0.59;100.00;100359.46;109232;1254;72366;-93
2023/02/03 04:17:39;;;;;;;12.60;5.90;;;;;;;0.61;100.00;100361.64;109248;1251;60514;-94
2023/02/03 04:20:29;;;;;;;11.00;5.70;;;;;;;0.62;100.00;100365.45;109351;1254;59697;-93
2023/02/03 04:23:19;;;;;;;11.00;5.90;;;;;;;0.61;100.00;100366.15;109147;1254;74943;-94
2023/02/03 04:26:08;;;;;;;14.30;7.00;;;;;;;0.57;100.00;100367.33;109349;1253;69810;-94
2023/02/03 04:28:58;;;;;;;14.30;6.00;;;;;;;0.47;100.00;100364.33;109222;1252;73902;-94
2023/02/03 04:31:48;;;;;;;12.40;5.80;;;;;;;0.48;100.00;100367.01;109143;1253;58593;-93
2023/02/03 04:34:37;;;;;;;13.10;6.00;;;;;;;0.48;100.00;100364.28;109197;1254;61264;-93
2023/02/03 04:37:26;;;;;;;14.30;6.60;;;;;;;0.46;100.00;100369.59;109133;1254;73702;-94
2023/02/03 04:40:17;;;;;;;14.60;6.30;;;;;;;0.47;100.00;100366.72;109179;1254;68189;-94
2023/02/03 04:43:08;;;;;;;11.30;5.60;;;;;;;0.41;100.00;100366.26;109134;1256;73329;-94
2023/02/03 04:46:00;;;;;;;11.90;5.90;;;;;;;0.36;100.00;100368.19;109062;1254;61219;-94
2023/02/03 04:48:49;;;;;;;13.80;6.80;;;;;;;0.37;100.00;100369.34;109177;1252;59060;-94
2023/02/03 04:51:39;;;;;;;11.30;6.30;;;;;;;0.37;100.00;100370.29;109354;1253;74148;-93
2023/02/03 04:54:31;;;;;;;12.40;6.30;;;;;;;0.35;100.00;100377.24;109184;1254;68240;-95
2023/02/03 04:57:22;;;;;;;12.40;6.00;;;;;;;0.31;100.00;100379.02;109217;1252;71924;-94
2023/02/03 05:00:11;;;;;;;13.00;6.10;;;;;;;0.33;100.00;100376.92;109084;1254;62111;-94
2023/02/03 05:03:01;;;;;;;13.10;6.50;;;;;;;0.34;100.00;100382.30;109135;1254;61105;-94
2023/02/03 05:05:50;;;;;;;14.40;5.70;;;;;;;0.33;100.00;100386.35;109339;1254;73289;-94
2023/02/03 05:08:40;;;;;;;15.60;6.40;;;;;;;0.30;100.00;100387.58;109109;1252;69686;-94
2023/02/03 05:11:30;;;;;;;11.70;5.40;;;;;;;0.29;100.00;100385.83;109209;1254;71978;-93
2023/02/03 05:14:19;;;;;;;14.90;6.90;;;;;;;0.32;100.00;100387.27;109138;1254;59460;-93
2023/02/03 05:17:09;;;;;;;15.10;6.30;;;;;;;0.32;100.00;100387.10;109327;1253;61279;-94
2023/02/03 05:20:01;;;;;;;17.80;7.80;;;;;;;0.31;100.00;100388.76;109271;1253;75156;-93
2023/02/03 05:22:50;;;;;;;15.60;6.60;;;;;;;0.34;100.00;100388.99;109343;1253;70068;-92
2023/02/03 05:25:39;;;;;;;14.10;6.60;;;;;;;0.37;100.00;100390.64;109273;1253;73875;-91
2023/02/03 05:28:28;;;;;;;13.80;7.00;;;;;;;0.35;100.00;100395.90;109267;1254;58779;-91
2023/02/03 05:31:20;;;;;;;12.80;6.50;;;;;;;0.36;100.00;100401.77;109324;1253;61566;-92
2023/02/03 05:34:10;;;;;;;14.80;6.70;;;;;;;0.39;100.00;100404.93;109270;1254;75154;-91
2023/02/03 05:37:00;;;;;;;11.30;6.30;;;;;;;0.43;100.00;100397.47;109351;1252;69771;-93
2023/02/03 05:39:49;;;;;;;14.70;7.40;;;;;;;0.44;100.00;100395.98;109193;1253;73999;-93
2023/02/03 05:42:46;;;;;;;14.30;6.70;;;;;;;0.44;100.00;100398.14;109158;1255;60576;-93
2023/02/03 05:45:36;;;;;;;12.50;5.90;;;;;;;0.48;100.00;100399.23;109190;1252;61500;-93
2023/02/03 05:48:25;;;;;;;15.20;6.90;;;;;;;0.58;100.00;100397.60;109156;1254;72422;-93
2023/02/03 05:51:14;;;;;;;14.40;7.10;;;;;;;0.62;100.00;100398.17;109337;1253;69287;-93
2023/02/03 05:54:05;;;;;;;11.80;6.40;;;;;;;0.60;100.00;100400.20;109094;1253;72867;-94
2023/02/03 05:56:54;;;;;;;13.60;6.30;;;;;;;0.64;100.00;100401.59;109186;1252;62547;-91
2023/02/03 05:59:44;;;;;;;14.00;7.60;;;;;;;0.65;100.00;100402.58;109135;1254;59979;-92
2023/02/03 06:02:33;;;;;;;15.10;6.90;;;;;;;0.59;100.00;100396.35;109246;1254;74940;-93
2023/02/03 06:05:22;;;;;;;13.40;7.00;;;;;;;0.64;100.00;100401.10;109160;1254;69542;-92
2023/02/03 06:08:11;;;;;;;14.90;7.50;;;;;;;0.73;100.00;100407.04;109302;1254;74686;-94
2023/02/03 06:11:01;;;;;;;13.90;7.00;;;;;;;0.85;100.00;100406.56;109169;1254;61950;-93
2023/02/03 06:13:50;;;;;;;11.60;6.90;;;;;;;0.92;100.00;100410.61;109107;1253;61509;-93
2023/02/03 06:16:40;;;;;;;17.40;6.70;;;;;;;0.93;100.00;100412.44;109309;1255;73821;-93
2023/02/03 06:19:30;;;;;;;16.50;7.20;;;;;;;0.95;100.00;100407.87;109351;1254;71047;-92
2023/02/03 06:22:19;;;;;;;17.60;7.10;;;;;;;1.03;100.00;100407.08;109260;1254;73072;-92
2023/02/03 06:25:09;;;;;;;13.30;6.70;;;;;;;1.11;100.00;100408.83;109206;1252;59046;-94
2023/02/03 06:28:01;;;;;;;16.60;7.10;;;;;;;1.19;100.00;100411.14;109144;1253;59433;-93
2023/02/03 06:30:51;;;;;;;16.00;7.10;;;;;;;1.16;100.00;100420.58;109117;1253;74048;-93
2023/02/03 06:33:41;;;;;;;22.80;9.50;;;;;;;1.19;100.00;100429.39;109052;1254;69250;-91
2023/02/03 06:36:31;;;;;;;13.60;6.90;;;;;;;1.23;100.00;100426.47;109361;1253;70907;-92
2023/02/03 06:39:20;;;;;;;17.80;7.50;;;;;;;1.09;100.00;100428.80;109329;1253;59702;-93
2023/02/03 06:42:09;;;;;;;16.00;7.40;;;;;;;1.00;100.00;100438.92;109157;1254;59924;-92
2023/02/03 06:44:59;;;;;;;16.10;7.50;;;;;;;1.05;100.00;100440.08;109247;1254;73749;-92
2023/02/03 06:47:48;;;;;;;12.10;6.00;;;;;;;1.12;100.00;100442.40;109046;1254;69641;-93
2023/02/03 06:50:37;;;;;;;19.40;7.40;;;;;;;1.15;100.00;100446.98;109136;1253;72974;-93
2023/02/03 06:53:26;;;;;;;17.00;8.10;;;;;;;1.15;100.00;100447.47;109176;1253;61300;-93
2023/02/03 06:56:15;;;;;;;16.10;7.10;;;;;;;1.20;100.00;100448.11;109323;1256;61443;-94
2023/02/03 06:59:04;;;;;;;16.60;6.80;;;;;;;1.21;100.00;100445.04;109278;1254;71595;-93
2023/02/03 07:01:53;;;;;;;15.50;7.10;;;;;;;1.23;100.00;100442.03;109278;1254;66826;-92
2023/02/03 07:04:47;;;;;;;17.70;7.30;;;;;;;1.28;100.00;100439.39;109196;1254;73004;-91
2023/02/03 07:07:38;;;;;;;15.70;7.20;;;;;;;1.37;100.00;100440.44;109122;1253;58827;-92
2023/02/03 07:10:27;;;;;;;15.10;6.70;;;;;;;1.40;100.00;100440.05;109354;1253;60937;-91
2023/02/03 07:13:16;;;;;;;14.20;7.60;;;;;;;1.47;100.00;100441.94;109246;1254;73250;-92
2023/02/03 07:16:05;;;;;;;19.90;8.90;;;;;;;1.50;100.00;100442.20;109335;1252;69205;-92
2023/02/03 07:18:55;;;;;;;16.20;7.60;;;;;;;1.45;100.00;100439.27;109368;1254;71886;-92
2023/02/03 07:21:44;;;;;;;15.80;7.10;;;;;;;1.59;100.00;100435.50;109118;1253;60099;-92
2023/02/03 07:24:33;;;;;;;14.30;7.10;;;;;;;1.70;100.00;100437.52;109328;1253;60506;-93
2023/02/03 07:27:22;;;;;;;15.40;7.90;;;;;;;1.72;100.00;100434.30;109421;1254;72624;-92
2023/02/03 07:30:12;;;;;;;13.80;7.10;;;;;;;1.79;100.00;100434.83;109230;1255;68258;-92
2023/02/03 07:33:01;;;;;;;15.50;7.10;;;;;;;1.86;100.00;100440.02;109213;1254;73091;-92
2023/02/03 07:35:54;;;;;;;15.80;6.80;;;;;;;1.92;100.00;100439.02;109357;1253;62144;-94
2023/02/03 07:38:43;;;;;;;14.40;7.10;;;;;;;2.12;100.00;100442.89;109180;1253;61586;-92
2023/02/03 07:41:34;;;;;;;12.10;6.50;;;;;;;2.31;100.00;100440.55;109391;1253;72143;-92
2023/02/03 07:44:23;;;;;;;11.60;6.30;;;;;;;2.52;100.00;100444.27;109052;1253;69836;-92
2023/02/03 07:47:32;;;;;;;15.00;6.60;;;;;;;2.73;100.00;100439.45;109228;1254;76299;-92
2023/02/03 07:50:21;;;;;;;12.20;7.10;;;;;;;2.86;100.00;100436.86;109001;1254;59630;-93
2023/02/03 07:53:10;;;;;;;11.40;5.70;;;;;;;2.91;100.00;100436.71;109354;1252;61418;-92
2023/02/03 07:56:00;;;;;;;14.10;6.70;;;;;;;2.99;100.00;100437.69;109190;1256;73316;-92
2023/02/03 07:58:53;;;;;;;11.60;5.90;;;;;;;3.19;100.00;100434.09;109028;1255;69977;-93
2023/02/03 08:01:42;;;;;;;;;;;;;;;3.44;100.00;100431.38;109320;1254;72884;-94
2023/02/03 08:04:31;;;;;;;12.80;6.20;;;;;;;3.62;100.00;100429.10;109324;1254;61918;-93
2023/02/03 08:07:20;;;;;;;14.10;6.30;;;;;;;3.71;100.00;100429.05;109312;1254;60700;-93
2023/02/03 08:10:11;;;;;;;11.60;6.30;;;;;;;3.72;100.00;100433.24;109269;1253;73901;-93
2023/02/03 08:13:00;;;;;;;10.20;5.30;;;;;;;3.70;100.00;100437.77;109123;1252;68898;-93
2023/02/03 08:15:49;;;;;;;11.90;6.10;;;;;;;3.87;100.00;100437.48;109306;1254;71886;-92
2023/02/03 08:18:39;;;;;;;13.90;6.20;;;;;;;4.09;100.00;100436.77;109329;1253;60416;-92
2023/02/03 08:21:28;;;;;;;13.70;6.60;;;;;;;4.30;100.00;100427.11;109205;1254;60223;-92
2023/02/03 08:24:17;;;;;;;13.70;7.30;;;;;;;4.41;100.00;100424.05;109378;1253;73995;-94
2023/02/03 08:27:06;;;;;;;10.10;5.30;;;;;;;4.59;100.00;100426.30;109255;1253;67570;-93
2023/02/03 08:29:56;;;;;;;11.70;5.80;;;;;;;4.73;100.00;100424.52;109284;1253;73557;-93
2023/02/03 08:32:45;;;;;;;14.40;5.60;;;;;;;4.76;100.00;100427.98;109228;1256;60352;-94
2023/02/03 08:35:34;;;;;;;9.60;4.90;;;;;;;4.67;100.00;100428.67;109154;1254;59972;-94
2023/02/03 08:38:23;;;;;;;9.60;5.00;;;;;;;4.63;100.00;100426.75;109281;1253;75217;-93
2023/02/03 08:41:14;;;;;;;9.60;4.80;;;;;;;4.58;100.00;100426.70;109128;1254;69979;-93
2023/02/03 08:44:05;;;;;;;9.90;5.40;;;;;;;4.59;100.00;100425.86;109330;1252;73788;-93
2023/02/03 08:46:54;;;;;;;10.50;5.40;;;;;;;4.51;100.00;100424.25;109334;1253;59422;-94
2023/02/03 08:49:44;;;;;;;10.40;5.00;;;;;;;4.47;100.00;100424.31;109201;1254;61475;-93
2023/02/03 08:52:33;;;;;;;9.20;5.10;;;;;;;4.49;100.00;100422.05;109288;1254;75072;-93
2023/02/03 08:55:23;;;;;;;9.60;5.10;;;;;;;4.46;100.00;100418.14;109353;1254;69991;-93
2023/02/03 08:58:13;;;;;;;9.10;5.20;;;;;;;4.47;100.00;100412.53;109358;1254;72752;-93
2023/02/03 09:01:11;;;;;;;9.90;5.10;;;;;;;4.51;100.00;100413.90;109189;1254;62284;-94
2023/02/03 09:04:02;;;;;;;11.70;4.80;;;;;;;4.53;100.00;100410.48;109253;1254;61142;-94
2023/02/03 09:06:55;;;;;;;8.30;4.00;;;;;;;4.65;100.00;100407.79;109409;1253;75127;-92
2023/02/03 09:09:44;;;;;;;8.80;4.70;;;;;;;4.73;100.00;100400.27;109435;1253;69054;-94
2023/02/03 09:12:35;;;;;;;7.80;4.40;;;;;;;4.85;100.00;100394.58;109122;1254;74324;-93
2023/02/03 09:15:25;;;;;;;5.00;3.40;;;;;;;4.87;100.00;100398.55;109237;1252;59750;-91
2023/02/03 09:18:14;;;;;;;8.50;4.50;;;;;;;4.90;100.00;100393.86;109385;1254;60072;-94
2023/02/03 09:21:04;;;;;;;6.50;4.10;;;;;;;4.96;100.00;100391.59;109343;1254;74831;-93
2023/02/03 09:23:53;;;;;;;9.50;4.80;;;;;;;5.03;100.00;100388.67;109295;1254;70386;-93
2023/02/03 09:26:43;;;;;;;9.50;5.30;;;;;;;5.10;100.00;100390.68;109340;1254;72285;-93
2023/02/03 09:29:32;;;;;;;7.60;4.40;;;;;;;5.25;100.00;100388.77;109187;1253;60877;-94
2023/02/03 09:32:22;;;;;;;12.20;4.60;;;;;;;5.47;100.00;100387.12;109366;1254;60355;-92
2023/02/03 09:35:11;;;;;;;7.30;4.80;;;;;;;5.64;100.00;100389.77;109367;1254;75064;-93
2023/02/03 09:38:01;;;;;;;6.00;3.80;;;;;;;5.68;100.00;100381.80;109406;1254;69993;-94
2023/02/03 09:40:56;;;;;;;7.10;4.30;;;;;;;5.55;100.00;100381.39;109197;1257;72667;-93
2023/02/03 09:44:21;;;;;;;7.80;4.40;;;;;;;5.46;100.00;100382.89;109325;1254;59287;-93
2023/02/03 09:47:16;;;;;;;5.20;3.70;;;;;;;5.32;100.00;100385.04;109239;1253;61406;-94
2023/02/03 09:50:06;;;;;;;6.40;3.80;;;;;;;5.28;100.00;100386.93;109115;1254;74670;-93
2023/02/03 09:52:55;;;;;;;7.20;4.20;;;;;;;5.28;100.00;100387.09;109292;1254;70725;-92
2023/02/03 09:55:47;;;;;;;9.30;4.40;;;;;;;5.29;100.00;100387.77;109366;1251;72848;-93
2023/02/03 09:58:36;;;;;;;7.90;3.70;;;;;;;5.26;100.00;100387.06;109366;1252;58232;-93
2023/02/03 10:01:29;;;;;;;6.80;4.00;;;;;;;5.27;100.00;100387.45;109303;1253;61136;-94
2023/02/03 12:04:36;;;;;;;15.40;8.30;;;;;;;2.08;100.00;100359.85;105585;1291;600583;-91
2023/02/03 12:07:38;;;;;;;17.80;8.80;;;;;;;1.99;100.00;100362.89;108738;1262;61326;-89
2023/02/03 12:10:46;;;;;;;16.20;7.10;;;;;;;1.95;100.00;100366.67;108757;1259;60340;-92
2023/02/03 12:13:47;;;;;;;9.60;5.50;;;;;;;1.95;100.00;100369.63;108803;1261;71770;-89
2023/02/03 12:17:02;;;;;;;12.10;5.80;;;;;;;1.96;100.00;100371.21;108612;1263;69953;-90
2023/02/03 12:20:12;;;;;;;11.70;6.10;;;;;;;1.88;100.00;100373.30;108720;1257;71605;-92
2023/02/03 12:23:07;;;;;;;10.30;5.50;;;;;;;1.79;100.00;100369.80;108795;1261;62306;-90
2023/02/03 12:26:02;;;;;;;10.20;5.10;;;;;;;1.70;100.00;100378.54;108754;1259;59032;-91
2023/02/03 12:29:03;;;;;;;10.20;5.80;;;;;;;1.65;100.00;100384.02;108802;1257;71433;-90
2023/02/03 12:32:18;;;;;;;5.70;3.20;;;;;;;1.57;100.00;100388.36;108725;1257;69816;-90
2023/02/03 12:35:33;;;;;;;5.00;3.20;;;;;;;1.39;100.00;100395.15;108858;1256;71927;-90
2023/02/03 12:38:38;;;;;;;6.00;3.30;;;;;;;1.22;100.00;100394.09;108731;1258;61121;-90
2023/02/03 12:41:31;;;;;;;5.40;3.00;;;;;;;1.10;100.00;100393.52;108883;1258;60329;-90
2023/02/03 12:44:28;;;;;;;5.00;3.50;;;;;;;1.02;100.00;100392.70;108839;1257;73109;-89
2023/02/03 12:47:28;;;;;;;7.70;4.10;;;;;;;0.99;100.00;100396.90;108773;1260;68552;-89
2023/02/03 12:50:20;;;;;;;5.50;3.60;;;;;;;0.95;100.00;100400.01;108877;1257;73356;-88
2023/02/03 12:53:24;;;;;;;9.90;4.80;;;;;;;0.87;100.00;100400.02;108776;1256;61380;-88
2023/02/03 12:56:24;;;;;;;6.00;3.90;;;;;;;0.80;100.00;100394.83;108773;1256;59035;-89
2023/02/03 12:59:17;;;;;;;9.30;4.40;;;;;;;0.78;100.00;100397.13;108749;1257;72990;-88
2023/02/03 13:02:18;;;;;;;8.50;4.50;;;;;;;0.75;100.00;100400.20;108795;1256;68400;-89
2023/02/03 13:05:22;;;;;;;8.20;4.70;;;;;;;0.73;100.00;100404.69;108781;1256;73689;-89
2023/02/03 13:08:24;;;;;;;7.40;4.20;;;;;;;0.69;100.00;100405.15;109018;1254;60748;-89
2023/02/03 13:11:27;;;;;;;7.30;4.20;;;;;;;0.66;100.00;100407.38;109081;1257;59716;-87
2023/02/03 13:14:23;;;;;;;6.20;3.90;;;;;;;0.63;100.00;100405.52;109268;1253;71192;-89
2023/02/03 13:17:19;;;;;;;6.60;4.50;;;;;;;0.59;100.00;100409.96;109054;1254;69950;-89
2023/02/03 13:20:23;;;;;;;5.40;3.40;;;;;;;0.54;100.00;100411.28;109099;1254;73089;-89
2023/02/03 13:23:13;;;;;;;6.40;3.40;;;;;;;0.49;100.00;100411.63;109268;1253;62403;-88
2023/02/03 13:26:24;;;;;;;6.80;4.20;;;;;;;0.49;100.00;100412.55;109137;1254;61190;-89
2023/02/03 13:29:22;;;;;;;6.30;3.50;;;;;;;0.45;100.00;100416.88;109162;1253;74286;-90
2023/02/03 13:32:26;;;;;;;5.70;2.80;;;;;;;0.39;100.00;100415.27;109257;1256;68484;-91
2023/02/03 13:35:45;;;;;;;3.90;2.80;;;;;;;0.39;100.00;100418.17;109233;1257;73553;-94
2023/02/03 13:38:49;;;;;;;1.70;1.60;;;;;;;0.36;100.00;100421.41;109108;1253;60085;-91
2023/02/03 13:41:48;;;;;;;2.10;1.80;;;;;;;0.34;100.00;100426.21;109178;1258;58632;-89
2023/02/03 13:44:37;;;;;;;3.10;2.00;;;;;;;0.32;100.00;100427.17;109239;1254;72014;-89
2023/02/03 13:47:28;;;;;;;3.20;1.90;;;;;;;0.30;100.00;100423.10;109133;1254;69416;-89
2023/02/03 13:50:24;;;;;;;2.10;1.70;;;;;;;0.24;100.00;100424.27;109115;1253;72531;-89
2023/02/03 13:53:25;;;;;;;4.30;2.60;;;;;;;0.25;100.00;100422.85;109087;1254;58949;-87
2023/02/03 13:56:23;;;;;;;3.90;2.70;;;;;;;0.21;100.00;100423.65;109334;1254;60059;-87
2023/02/03 13:59:12;;;;;;;5.00;2.10;;;;;;;0.19;100.00;100420.94;109246;1254;73215;-88
2023/02/03 14:02:20;;;;;;;2.80;2.20;;;;;;;0.18;100.00;100421.25;109259;1254;68998;-89
2023/02/03 14:05:37;;;;;;;3.20;1.90;;;;;;;0.16;100.00;100423.92;109280;1254;73190;-88
2023/02/03 14:08:26;;;;;;;4.30;2.40;;;;;;;0.14;100.00;100419.70;109293;1254;60112;-88
2023/02/03 14:11:34;;;;;;;2.50;1.80;;;;;;;0.13;100.00;100424.80;109304;1253;62036;-87
2023/02/03 14:14:23;;;;;;;4.00;2.50;;;;;;;0.10;100.00;100419.85;109360;1254;73604;-88
2023/02/03 14:17:34;;;;;;;3.10;1.80;;;;;;;0.10;100.00;100424.89;109281;1256;67666;-88
2023/02/03 14:20:25;;;;;;;3.70;2.00;;;;;;;0.11;100.00;100423.34;109259;1254;73509;-88
2023/02/03 14:23:38;;;;;;;5.50;3.70;;;;;;;0.13;100.00;100424.84;109244;1254;59481;-87
2023/02/03 14:26:50;;;;;;;7.70;4.10;;;;;;;0.14;100.00;100423.80;109144;1253;57947;-88
2023/02/03 14:29:39;;;;;;;6.90;4.40;;;;;;;0.11;100.00;100421.11;109290;1254;72189;-87
2023/02/03 14:32:51;;;;;;;11.70;4.30;;;;;;;0.09;100.00;100419.35;109297;1253;68802;-88
2023/02/03 14:35:41;;;;;;;11.80;6.40;;;;;;;0.13;100.00;100417.97;109217;1257;70550;-88
2023/02/03 14:38:30;;;;;;;7.30;4.60;;;;;;;0.15;100.00;100416.32;109134;1254;59616;-88
2023/02/03 14:41:24;;;;;;;5.40;4.00;;;;;;;0.16;100.00;100417.10;109150;1254;61507;-87
2023/02/03 14:44:19;;;;;;;6.70;3.60;;;;;;;0.15;100.00;100419.66;109135;1258;73950;-88
2023/02/03 14:47:55;;;;;;;7.70;3.80;;;;;;;0.15;100.00;100418.25;109328;1252;68799;-88
2023/02/03 14:51:13;;;;;;;7.10;3.90;;;;;;;0.12;100.00;100417.65;108700;1259;73890;-87
2023/02/03 14:54:11;;;;;;;10.40;5.50;;;;;;;0.11;100.00;100414.75;108700;1260;61962;-87
2023/02/03 14:57:15;;;;;;;5.70;3.50;;;;;;;0.11;100.00;100416.44;109293;1256;60382;-87
2023/02/03 15:00:09;;;;;;;6.60;4.20;;;;;;;0.10;100.00;100420.09;109302;1254;73097;-86
2023/02/03 15:03:10;;;;;;;12.90;8.00;;;;;;;0.13;100.00;100417.64;109282;1255;68881;-87
2023/02/03 15:06:02;;;;;;;7.30;6.20;;;;;;;0.14;100.00;100415.23;109397;1252;73349;-87
2023/02/03 15:08:53;;;;;;;7.40;5.80;;;;;;;0.13;100.00;100416.77;109176;1251;59000;-86
2023/02/03 15:11:43;;;;;;;6.70;4.40;;;;;;;0.10;100.00;100416.40;109338;1254;59606;-87